< Typhoon 200008 2000 Season Typhoon 200010 >
Typhoon 200009 (EWINIAR)
General InformationTrack Information on Google MapsDetailed Wind InformationList of All Images || NewsDisaster Info.ResourceGoogle EarthGE AnimationAtom FeedGeoJSON
Detalied Best Track (Time Zone = UTC)
Year Month Day Hour Lat. Long. Pressure (hPa) Wind (kt) Class Image Chart
2000 8 9 00 14.3 142.5 1002 0 2 Image Chart
2000 8 9 06 14.1 141.6 998 0 2 Image Chart
2000 8 9 12 14.2 140.1 996 0 2 Image Chart
2000 8 9 18 14.9 139.5 994 35 3 Image Chart
2000 8 10 00 15.6 139.2 992 40 3 Image Chart
2000 8 10 06 17.0 139.1 992 40 3 Image Chart
2000 8 10 12 18.3 139.0 992 40 3 Image Chart
2000 8 10 18 19.9 138.9 992 40 3 Image Chart
2000 8 11 00 23.2 138.9 990 45 3 Image Chart
2000 8 11 06 25.5 138.0 985 50 4 Image Chart
2000 8 11 12 27.6 137.4 980 55 4 Image Chart
2000 8 11 18 29.1 136.3 980 55 4 Image Chart
2000 8 12 00 29.3 135.6 980 55 4 Image Chart
2000 8 12 06 29.3 135.9 985 50 4 Image Chart
2000 8 12 09 29.8 136.2 985 50 4 Image Chart
2000 8 12 12 30.4 136.2 985 50 4 Image Chart
2000 8 12 15 30.6 136.5 985 50 4 Image Chart
2000 8 12 18 30.6 136.7 985 50 4 Image Chart
2000 8 12 21 30.7 137.3 985 50 4 Image Chart
2000 8 13 00 30.8 138.2 985 50 4 Image Chart
2000 8 13 03 31.1 138.7 985 50 4 Image Chart
2000 8 13 06 31.5 139.3 985 50 4 Image Chart
2000 8 13 09 31.8 140.2 985 50 4 Image Chart
2000 8 13 12 31.9 141.0 985 50 4 Image Chart
2000 8 13 15 32.2 141.8 985 50 4 Image Chart
2000 8 13 18 32.5 142.5 985 50 4 Image Chart
2000 8 14 00 33.1 144.0 985 50 4 Image Chart
2000 8 14 06 33.8 145.6 985 50 4 Image Chart
2000 8 14 12 34.2 147.0 985 50 4 Image Chart
2000 8 14 18 34.7 147.7 980 55 4 Image Chart
2000 8 15 00 34.8 148.3 980 55 4 Image Chart
2000 8 15 06 35.0 149.4 975 60 4 Image Chart
2000 8 15 12 35.4 150.2 975 60 4 Image Chart
2000 8 15 18 36.1 150.8 975 65 5 Image Chart
2000 8 16 00 36.9 150.7 975 65 5 Image Chart
2000 8 16 06 37.3 150.7 975 65 5 Image Chart
2000 8 16 12 38.0 150.9 980 60 4 Image Chart
2000 8 16 18 38.3 150.7 980 55 4 Image Chart
2000 8 17 00 38.4 150.3 985 50 4 Image Chart
2000 8 17 06 38.6 149.9 985 50 4 Image Chart
2000 8 17 12 38.5 149.7 990 45 3 Image Chart
2000 8 17 18 38.5 150.0 992 45 3 Image Chart
2000 8 18 00 39.0 149.6 994 45 3 Image Chart
2000 8 18 06 39.2 149.7 994 45 3 Image Chart
2000 8 18 12 39.4 149.5 994 0 6 Image Chart
2000 8 18 18 39.5 149.1 994 0 6 Image Chart
2000 8 19 00 39.4 148.5 996 0 6 Image Chart
2000 8 19 06 39.2 149.1 996 0 6 Image Chart
2000 8 19 12 39.3 150.0 998 0 6 Image Chart
2000 8 19 18 39.6 150.7 1000 0 6 Image Chart
2000 8 20 00 40.2 151.1 1000 0 6 Image Chart
2000 8 20 06 40.6 151.2 1002 0 6 Image Chart
2000 8 20 12 40.8 151.2 1004 0 6 Image Chart
2000 8 20 18 40.8 150.7 1004 0 6 Image Chart
2000 8 21 00 40.2 149.8 1008 0 6 Image Chart
2000 8 21 06 40.1 149.9 1008 0 6 Image Chart
Japan Meteorological Agency Best Track Data | Correction Date : 2001-12-21
< Typhoon 200008 2000 Season Typhoon 200010 >

Help